createdAt,value
2016-10-19T00:00:15.778Z,0
2016-10-19T00:00:56.503Z,0
2016-10-19T00:01:37.159Z,0
2016-10-19T00:02:17.850Z,0
2016-10-19T00:02:58.494Z,0
2016-10-19T00:03:39.171Z,0
2016-10-19T00:04:19.900Z,0
2016-10-19T00:05:00.583Z,0
2016-10-19T00:05:41.269Z,0
2016-10-19T00:06:21.932Z,0
2016-10-19T00:07:02.641Z,0
2016-10-19T00:07:43.346Z,0
2016-10-19T00:08:24.050Z,0
2016-10-19T00:09:04.703Z,0
2016-10-19T00:09:45.336Z,0
2016-10-19T00:10:26.013Z,0
2016-10-19T00:11:06.687Z,0
2016-10-19T00:11:47.337Z,0
2016-10-19T00:12:28.019Z,0
2016-10-19T00:13:08.673Z,0
2016-10-19T00:13:49.346Z,0
2016-10-19T00:14:30.046Z,0
2016-10-19T00:15:10.733Z,0
2016-10-19T00:15:51.374Z,0
2016-10-19T00:16:32.051Z,0
2016-10-19T00:17:12.752Z,0
2016-10-19T00:17:53.410Z,0
2016-10-19T00:18:34.060Z,0
2016-10-19T00:19:14.771Z,0
2016-10-19T00:19:55.440Z,0
2016-10-19T00:20:36.125Z,0
2016-10-19T00:21:16.813Z,0
2016-10-19T00:21:57.491Z,0
2016-10-19T00:22:38.217Z,0
2016-10-19T00:23:18.906Z,0
2016-10-19T00:23:59.626Z,0
2016-10-19T00:24:40.275Z,0
2016-10-19T00:25:20.959Z,0
2016-10-19T00:26:01.655Z,0
2016-10-19T00:26:42.325Z,0
2016-10-19T00:27:23.053Z,0
2016-10-19T00:28:04.508Z,0
2016-10-19T00:28:45.203Z,0
2016-10-19T00:29:25.919Z,0
2016-10-19T00:30:06.654Z,0
2016-10-19T00:30:47.364Z,0
2016-10-19T00:31:28.056Z,0
2016-10-19T00:32:08.752Z,0
2016-10-19T00:32:49.466Z,0
2016-10-19T00:33:30.634Z,0
2016-10-19T00:34:11.397Z,0
2016-10-19T00:34:52.065Z,0
2016-10-19T00:35:32.772Z,0
2016-10-19T00:36:13.491Z,0
2016-10-19T00:36:54.180Z,0
2016-10-19T00:37:34.826Z,0
2016-10-19T00:38:15.486Z,0
2016-10-19T00:38:56.160Z,0
2016-10-19T00:39:36.818Z,0
2016-10-19T00:40:17.491Z,0
2016-10-19T00:40:58.142Z,0
2016-10-19T00:41:38.811Z,0
2016-10-19T00:42:19.422Z,0
2016-10-19T00:43:00.146Z,0
2016-10-19T00:43:40.853Z,0
2016-10-19T00:44:21.489Z,0
2016-10-19T00:45:02.184Z,0
2016-10-19T00:45:42.899Z,0
2016-10-19T00:46:23.560Z,0
2016-10-19T00:47:04.309Z,0
2016-10-19T00:47:44.994Z,0
2016-10-19T00:48:25.675Z,0
2016-10-19T00:49:06.313Z,0
2016-10-19T00:49:46.980Z,0
2016-10-19T00:50:27.645Z,0
2016-10-19T00:51:08.335Z,0
2016-10-19T00:51:48.984Z,0
2016-10-19T00:52:29.666Z,0
2016-10-19T00:53:10.294Z,0
2016-10-19T00:53:50.987Z,0
2016-10-19T00:54:31.713Z,0
2016-10-19T00:55:12.431Z,0
2016-10-19T00:55:53.824Z,0
2016-10-19T00:56:34.510Z,0
2016-10-19T00:57:15.197Z,0
2016-10-19T00:57:55.881Z,0
2016-10-19T00:58:36.568Z,0
2016-10-19T00:59:17.249Z,0
2016-10-19T00:59:57.983Z,0
2016-10-19T01:00:38.651Z,0
2016-10-19T01:01:19.368Z,0
2016-10-19T01:02:00.048Z,0
2016-10-19T01:02:40.756Z,0
2016-10-19T01:03:21.427Z,0
2016-10-19T01:04:02.098Z,0
2016-10-19T01:04:42.750Z,0
2016-10-19T01:05:23.464Z,0
2016-10-19T01:06:04.131Z,0
2016-10-19T01:06:44.846Z,0
2016-10-19T01:07:25.534Z,0
2016-10-19T01:08:06.212Z,0
2016-10-19T01:08:46.901Z,0
2016-10-19T01:09:27.641Z,0
2016-10-19T01:10:08.346Z,0
2016-10-19T01:10:49.005Z,0
2016-10-19T01:11:29.685Z,0
2016-10-19T01:12:10.395Z,0
2016-10-19T01:12:51.064Z,0
2016-10-19T01:13:31.739Z,0
2016-10-19T01:14:12.396Z,0
2016-10-19T01:14:53.095Z,0
2016-10-19T01:15:33.742Z,0
2016-10-19T01:16:14.498Z,0
2016-10-19T01:16:55.210Z,0
2016-10-19T01:17:35.835Z,0
2016-10-19T01:18:16.491Z,0
2016-10-19T01:18:57.167Z,0
2016-10-19T01:19:37.900Z,0
2016-10-19T01:20:18.585Z,0
2016-10-19T01:20:59.304Z,0
2016-10-19T01:21:39.934Z,0
2016-10-19T01:22:20.616Z,0
2016-10-19T01:23:01.299Z,0
2016-10-19T01:23:42.007Z,0
2016-10-19T01:24:22.676Z,0
2016-10-19T01:25:03.337Z,0
2016-10-19T01:25:44.082Z,0
2016-10-19T01:26:24.709Z,0
2016-10-19T01:27:05.401Z,0
2016-10-19T01:27:46.099Z,0
2016-10-19T01:28:26.768Z,0
2016-10-19T01:29:07.493Z,0
2016-10-19T01:29:48.103Z,0
2016-10-19T01:30:28.740Z,0
2016-10-19T01:31:09.421Z,0
2016-10-19T01:31:50.161Z,0
2016-10-19T01:32:30.848Z,0
2016-10-19T01:33:11.545Z,0
2016-10-19T01:33:52.252Z,0
2016-10-19T01:34:32.953Z,0
2016-10-19T01:35:13.627Z,0
2016-10-19T01:35:54.309Z,0
2016-10-19T01:36:34.960Z,0
2016-10-19T01:37:15.705Z,0
2016-10-19T01:37:56.429Z,0
2016-10-19T01:38:37.113Z,0
2016-10-19T01:39:17.846Z,0
2016-10-19T01:39:58.489Z,0
2016-10-19T01:40:39.175Z,0
2016-10-19T01:41:19.859Z,0
2016-10-19T01:42:00.559Z,0
2016-10-19T01:42:41.233Z,0
2016-10-19T01:43:21.956Z,0
2016-10-19T01:44:02.644Z,0
2016-10-19T01:44:43.394Z,0
2016-10-19T01:45:24.104Z,0
2016-10-19T01:46:04.782Z,0
2016-10-19T01:46:45.444Z,0
2016-10-19T01:47:26.096Z,0
2016-10-19T01:48:06.800Z,0
2016-10-19T01:48:47.546Z,0
2016-10-19T01:49:28.218Z,0
2016-10-19T01:50:08.914Z,0
2016-10-19T01:50:49.598Z,0
2016-10-19T01:51:30.241Z,0
2016-10-19T01:52:10.919Z,0
2016-10-19T01:52:51.585Z,0
2016-10-19T01:53:32.284Z,0
2016-10-19T01:54:12.954Z,0
2016-10-19T01:54:53.637Z,0
2016-10-19T01:55:34.341Z,0
2016-10-19T01:56:15.036Z,0
2016-10-19T01:56:55.740Z,0
2016-10-19T01:57:36.396Z,0
2016-10-19T01:58:17.107Z,0
2016-10-19T01:58:57.756Z,0
2016-10-19T01:59:38.423Z,0
2016-10-19T02:00:19.118Z,0
2016-10-19T02:00:59.789Z,0
2016-10-19T02:01:40.539Z,0
2016-10-19T02:02:21.233Z,0
2016-10-19T02:03:01.889Z,0
2016-10-19T02:03:42.639Z,0
2016-10-19T02:04:23.305Z,0
2016-10-19T02:05:03.973Z,0
2016-10-19T02:05:44.708Z,0
2016-10-19T02:06:25.363Z,0
2016-10-19T02:07:06.048Z,0
2016-10-19T02:07:46.738Z,0
2016-10-19T02:08:27.399Z,0
2016-10-19T02:09:08.104Z,0
2016-10-19T02:09:48.778Z,0
2016-10-19T02:10:29.475Z,0
2016-10-19T02:11:10.104Z,0
2016-10-19T02:11:50.802Z,0
2016-10-19T02:12:31.515Z,0
2016-10-19T02:13:12.169Z,0
2016-10-19T02:13:52.832Z,0
2016-10-19T02:14:33.511Z,0
2016-10-19T02:15:14.200Z,0
2016-10-19T02:15:54.867Z,0
2016-10-19T02:16:35.522Z,0
2016-10-19T02:17:16.191Z,0
2016-10-19T02:17:56.880Z,0
2016-10-19T02:18:37.531Z,0
2016-10-19T02:19:18.233Z,0
2016-10-19T02:19:58.886Z,0
2016-10-19T02:20:39.559Z,0
2016-10-19T02:21:20.206Z,0
2016-10-19T02:22:00.871Z,0
2016-10-19T02:22:41.566Z,0
2016-10-19T02:23:22.292Z,0
2016-10-19T02:24:02.978Z,0
2016-10-19T02:24:43.652Z,0
2016-10-19T02:25:24.345Z,0
2016-10-19T02:26:05.051Z,0
2016-10-19T02:26:45.715Z,0
2016-10-19T02:27:26.397Z,0
2016-10-19T02:28:07.140Z,0
2016-10-19T02:28:47.862Z,0
2016-10-19T02:29:28.538Z,0
2016-10-19T02:30:09.229Z,0
2016-10-19T02:30:49.862Z,0
2016-10-19T02:31:30.583Z,0
2016-10-19T02:32:11.256Z,0
2016-10-19T02:32:51.944Z,0
2016-10-19T02:33:32.655Z,0
2016-10-19T02:34:13.320Z,0
2016-10-19T02:34:54.068Z,0
2016-10-19T02:35:34.760Z,0
2016-10-19T02:36:15.406Z,0
2016-10-19T02:36:56.091Z,0
2016-10-19T02:37:36.835Z,0
2016-10-19T02:38:17.520Z,0
2016-10-19T02:38:58.248Z,0
2016-10-19T02:39:38.910Z,0
2016-10-19T02:40:19.596Z,0
2016-10-19T02:41:00.280Z,0
2016-10-19T02:41:40.990Z,0
2016-10-19T02:42:21.601Z,0
2016-10-19T02:43:02.259Z,0
2016-10-19T02:43:42.964Z,0
2016-10-19T02:44:23.626Z,0
2016-10-19T02:45:04.331Z,0
2016-10-19T02:45:45.041Z,0
2016-10-19T02:46:25.745Z,0
2016-10-19T02:47:06.365Z,0
2016-10-19T02:47:47.064Z,0
2016-10-19T02:48:27.711Z,0
2016-10-19T02:49:08.399Z,0
2016-10-19T02:49:49.087Z,0
2016-10-19T02:50:30.584Z,0
2016-10-19T02:51:11.250Z,0
2016-10-19T02:51:51.948Z,0
2016-10-19T02:52:32.594Z,0
2016-10-19T02:53:13.297Z,0
2016-10-19T02:53:54.008Z,0
2016-10-19T02:54:34.660Z,0
2016-10-19T02:55:15.349Z,0
2016-10-19T02:55:56.027Z,0
2016-10-19T02:56:36.657Z,0
2016-10-19T02:57:17.322Z,0
2016-10-19T02:57:58.034Z,0
2016-10-19T02:58:38.756Z,0
2016-10-19T02:59:19.462Z,0
2016-10-19T03:00:00.171Z,0
2016-10-19T03:00:40.873Z,0
2016-10-19T03:01:21.551Z,0
2016-10-19T03:02:02.247Z,0
2016-10-19T03:02:42.944Z,0
2016-10-19T03:03:23.586Z,0
2016-10-19T03:04:04.239Z,0
2016-10-19T03:04:44.945Z,0
2016-10-19T03:05:25.616Z,0
2016-10-19T03:06:06.314Z,0
2016-10-19T03:06:46.992Z,0
2016-10-19T03:07:27.700Z,0
2016-10-19T03:08:08.346Z,0
2016-10-19T03:08:49.092Z,0
2016-10-19T03:09:29.815Z,0
2016-10-19T03:10:10.536Z,0
2016-10-19T03:10:51.196Z,0
2016-10-19T03:11:31.842Z,0
2016-10-19T03:12:12.547Z,0
2016-10-19T03:12:53.225Z,0
2016-10-19T03:13:33.927Z,0
2016-10-19T03:14:14.636Z,0
2016-10-19T03:14:55.315Z,0
2016-10-19T03:15:35.968Z,0
2016-10-19T03:16:16.657Z,0
2016-10-19T03:16:57.346Z,0
2016-10-19T03:17:38.061Z,0
2016-10-19T03:18:18.730Z,0
2016-10-19T03:18:59.447Z,0
2016-10-19T03:19:40.167Z,0
2016-10-19T03:20:20.826Z,0
2016-10-19T03:21:01.585Z,0
2016-10-19T03:21:42.269Z,0
2016-10-19T03:22:22.949Z,0
2016-10-19T03:23:03.608Z,0
2016-10-19T03:23:44.312Z,0
2016-10-19T03:24:25.035Z,0
2016-10-19T03:25:05.669Z,0
2016-10-19T03:25:46.393Z,0
2016-10-19T03:26:27.059Z,0
2016-10-19T03:27:07.725Z,0
2016-10-19T03:27:48.386Z,0
2016-10-19T03:28:29.081Z,0
2016-10-19T03:29:09.769Z,0
2016-10-19T03:29:50.410Z,0
2016-10-19T03:30:31.060Z,0
2016-10-19T03:31:11.698Z,0
2016-10-19T03:31:52.397Z,0
2016-10-19T03:32:33.058Z,0
2016-10-19T03:33:13.722Z,0
2016-10-19T03:33:54.420Z,0
2016-10-19T03:34:35.091Z,0
2016-10-19T03:35:15.747Z,0
2016-10-19T03:35:56.472Z,0
2016-10-19T03:36:37.165Z,0
2016-10-19T03:37:17.864Z,0
2016-10-19T03:37:58.575Z,0
2016-10-19T03:38:39.266Z,0
2016-10-19T03:39:19.947Z,0
2016-10-19T03:40:00.677Z,0
2016-10-19T03:40:41.315Z,0
2016-10-19T03:41:21.970Z,0
2016-10-19T03:42:02.670Z,0
2016-10-19T03:42:43.370Z,0
2016-10-19T03:43:24.038Z,0
2016-10-19T03:44:04.754Z,0
2016-10-19T03:44:45.455Z,0
2016-10-19T03:45:26.148Z,0
2016-10-19T03:46:06.851Z,0
2016-10-19T03:46:47.570Z,0
2016-10-19T03:47:28.255Z,0
2016-10-19T03:48:08.907Z,0
2016-10-19T03:48:49.596Z,0
2016-10-19T03:49:30.292Z,0
2016-10-19T03:50:10.981Z,0
2016-10-19T03:50:51.649Z,0
2016-10-19T03:51:32.327Z,0
2016-10-19T03:52:12.997Z,0
2016-10-19T03:52:53.683Z,0
2016-10-19T03:53:34.354Z,0
2016-10-19T03:54:15.021Z,0
2016-10-19T03:54:55.724Z,0
2016-10-19T03:55:36.406Z,0
2016-10-19T03:56:17.085Z,0
2016-10-19T03:56:57.809Z,0
2016-10-19T03:57:38.521Z,0
2016-10-19T03:58:19.169Z,0
2016-10-19T03:58:59.796Z,0
2016-10-19T03:59:40.452Z,0
2016-10-19T04:00:21.141Z,0
2016-10-19T04:01:01.872Z,0
2016-10-19T04:01:42.572Z,0
2016-10-19T04:02:23.277Z,0
2016-10-19T04:03:03.995Z,0
2016-10-19T04:03:44.652Z,0
2016-10-19T04:04:25.318Z,0
2016-10-19T04:05:06.009Z,0
2016-10-19T04:05:46.692Z,0
2016-10-19T04:06:27.356Z,0
2016-10-19T04:07:08.043Z,0
2016-10-19T04:07:48.772Z,0
2016-10-19T04:08:29.437Z,0
2016-10-19T04:09:10.108Z,0
2016-10-19T04:09:50.781Z,0
2016-10-19T04:10:31.461Z,0
2016-10-19T04:11:12.103Z,0
2016-10-19T04:11:52.776Z,0
2016-10-19T04:12:33.445Z,0
2016-10-19T04:13:14.147Z,0
2016-10-19T04:13:54.804Z,0
2016-10-19T04:14:35.512Z,0
2016-10-19T04:15:16.222Z,0
2016-10-19T04:15:56.925Z,0
2016-10-19T04:16:37.615Z,0
2016-10-19T04:17:18.322Z,0
2016-10-19T04:17:58.991Z,0
2016-10-19T04:18:39.669Z,0
2016-10-19T04:19:20.334Z,0
2016-10-19T04:20:01.007Z,0
2016-10-19T04:20:41.700Z,0
2016-10-19T04:21:22.353Z,0
2016-10-19T04:22:03.028Z,0
2016-10-19T04:22:43.748Z,0
2016-10-19T04:23:24.405Z,0
2016-10-19T04:24:05.109Z,0
2016-10-19T04:24:45.763Z,0
2016-10-19T04:25:26.441Z,0
2016-10-19T04:26:07.147Z,0
2016-10-19T04:26:47.835Z,0
2016-10-19T04:27:28.547Z,0
2016-10-19T04:28:09.255Z,0
2016-10-19T04:28:49.976Z,0
2016-10-19T04:29:30.636Z,0
2016-10-19T04:30:11.359Z,0
2016-10-19T04:30:52.044Z,0
2016-10-19T04:31:32.773Z,0
2016-10-19T04:32:13.411Z,0
2016-10-19T04:32:54.093Z,0
2016-10-19T04:33:34.789Z,0
2016-10-19T04:34:15.464Z,0
2016-10-19T04:34:56.125Z,0
2016-10-19T04:35:36.818Z,0
2016-10-19T04:36:17.514Z,0
2016-10-19T04:36:58.199Z,0
2016-10-19T04:37:38.881Z,0
2016-10-19T04:38:19.549Z,0
2016-10-19T04:39:00.229Z,0
2016-10-19T04:39:40.896Z,0
2016-10-19T04:40:21.588Z,0
2016-10-19T04:41:02.279Z,0
2016-10-19T04:41:42.944Z,0
2016-10-19T04:42:23.645Z,0
2016-10-19T04:43:04.346Z,0
2016-10-19T04:43:45.026Z,0
2016-10-19T04:44:25.708Z,0
2016-10-19T04:45:06.440Z,0
2016-10-19T04:45:47.084Z,0
2016-10-19T04:46:27.806Z,0
2016-10-19T04:47:08.494Z,0
2016-10-19T04:47:49.189Z,0
2016-10-19T04:48:29.845Z,0
2016-10-19T04:49:10.554Z,0
2016-10-19T04:49:51.216Z,0
2016-10-19T04:50:31.953Z,0
2016-10-19T04:51:12.623Z,0
2016-10-19T04:51:53.292Z,0
2016-10-19T04:52:33.947Z,0
2016-10-19T04:53:14.620Z,0
2016-10-19T04:53:55.313Z,0
2016-10-19T04:54:35.984Z,0
2016-10-19T04:55:16.616Z,0
2016-10-19T04:55:57.328Z,0
2016-10-19T04:56:38.033Z,0
2016-10-19T04:57:18.725Z,0
2016-10-19T04:57:59.423Z,0
2016-10-19T04:58:40.097Z,0
2016-10-19T04:59:20.765Z,12
2016-10-19T05:00:01.460Z,20
2016-10-19T05:00:42.148Z,16
2016-10-19T05:01:22.794Z,16
2016-10-19T05:02:03.509Z,20
2016-10-19T05:02:44.243Z,20
2016-10-19T05:03:24.929Z,20
2016-10-19T05:04:05.657Z,20
2016-10-19T05:04:46.341Z,20
2016-10-19T05:05:27.018Z,20
2016-10-19T05:06:07.719Z,20
2016-10-19T05:06:48.394Z,20
2016-10-19T05:07:29.087Z,20
2016-10-19T05:08:09.744Z,20
2016-10-19T05:08:50.420Z,20
2016-10-19T05:09:31.113Z,20
2016-10-19T05:10:11.780Z,20
2016-10-19T05:10:52.494Z,20
2016-10-19T05:11:33.152Z,20
2016-10-19T05:12:13.825Z,20
2016-10-19T05:12:54.525Z,20
2016-10-19T05:13:35.245Z,20
2016-10-19T05:14:15.895Z,20
2016-10-19T05:14:56.561Z,20
2016-10-19T05:15:37.295Z,20
2016-10-19T05:16:17.983Z,20
2016-10-19T05:16:58.622Z,20
2016-10-19T05:17:39.334Z,20
2016-10-19T05:18:20.037Z,20
2016-10-19T05:19:00.780Z,20
2016-10-19T05:19:41.439Z,20
2016-10-19T05:20:22.117Z,20
2016-10-19T05:21:02.781Z,20
2016-10-19T05:21:43.430Z,20
2016-10-19T05:22:24.126Z,20
2016-10-19T05:23:04.762Z,20
2016-10-19T05:23:45.483Z,20
2016-10-19T05:24:26.183Z,20
2016-10-19T05:25:06.839Z,20
2016-10-19T05:25:47.501Z,20
2016-10-19T05:26:28.217Z,20
2016-10-19T05:27:08.908Z,20
2016-10-19T05:27:49.562Z,20
2016-10-19T05:28:30.231Z,20
2016-10-19T05:29:10.916Z,20
2016-10-19T05:29:51.655Z,20
2016-10-19T05:30:32.309Z,20
2016-10-19T05:31:12.994Z,20
2016-10-19T05:31:53.678Z,20
2016-10-19T05:32:34.364Z,20
2016-10-19T05:33:15.048Z,20
2016-10-19T05:33:55.711Z,20
2016-10-19T05:34:36.460Z,20
2016-10-19T05:35:17.109Z,20
2016-10-19T05:35:57.751Z,20
2016-10-19T05:36:38.444Z,20
2016-10-19T05:37:19.098Z,20
2016-10-19T05:37:59.755Z,20
2016-10-19T05:38:40.414Z,20
2016-10-19T05:39:21.099Z,20
2016-10-19T05:40:01.809Z,20
2016-10-19T05:40:42.532Z,20
2016-10-19T05:41:23.234Z,20
2016-10-19T05:42:03.947Z,20
2016-10-19T05:42:44.631Z,20
2016-10-19T05:43:25.359Z,20
2016-10-19T05:44:06.034Z,20
2016-10-19T05:44:46.706Z,20
2016-10-19T05:45:27.360Z,20
2016-10-19T05:46:08.061Z,20
2016-10-19T05:46:48.747Z,20
2016-10-19T05:47:29.384Z,20
2016-10-19T05:48:10.065Z,20
2016-10-19T05:48:50.749Z,20
2016-10-19T05:49:31.425Z,20
2016-10-19T05:50:12.131Z,20
2016-10-19T05:50:52.807Z,20
2016-10-19T05:51:33.465Z,20
2016-10-19T05:52:14.122Z,20
2016-10-19T05:52:54.827Z,20
2016-10-19T05:53:35.563Z,20
2016-10-19T05:54:16.264Z,20
2016-10-19T05:54:56.922Z,20
2016-10-19T05:55:37.624Z,20
2016-10-19T05:56:18.298Z,20
2016-10-19T05:56:58.955Z,20
2016-10-19T05:57:39.693Z,20
2016-10-19T05:58:20.397Z,20
2016-10-19T05:59:01.074Z,20
2016-10-19T05:59:41.739Z,20
2016-10-19T06:00:22.430Z,20
2016-10-19T06:01:03.124Z,20
2016-10-19T06:01:43.955Z,20
2016-10-19T06:02:24.627Z,20
2016-10-19T06:03:05.304Z,20
2016-10-19T06:03:46.025Z,20
2016-10-19T06:04:26.729Z,20
2016-10-19T06:05:07.471Z,20
2016-10-19T06:05:48.191Z,20
2016-10-19T06:06:28.880Z,20
2016-10-19T06:07:09.587Z,20
2016-10-19T06:07:50.287Z,20
2016-10-19T06:08:30.963Z,20
2016-10-19T06:09:11.666Z,20
2016-10-19T06:09:52.320Z,20
2016-10-19T06:10:32.981Z,20
2016-10-19T06:11:13.677Z,20
2016-10-19T06:11:54.378Z,20
2016-10-19T06:12:35.101Z,20
2016-10-19T06:13:15.756Z,20
2016-10-19T06:13:56.479Z,0
2016-10-19T06:14:37.193Z,0
2016-10-19T06:15:17.856Z,0
2016-10-19T06:15:58.603Z,0
2016-10-19T06:16:39.340Z,0
2016-10-19T06:17:20.033Z,0
2016-10-19T06:18:00.753Z,0
2016-10-19T06:18:41.512Z,0
2016-10-19T06:19:22.204Z,300
2016-10-19T06:22:01.227Z,460
2016-10-19T06:22:41.876Z,468
2016-10-19T06:23:22.528Z,468
2016-10-19T06:24:03.230Z,468
2016-10-19T06:24:43.876Z,468
2016-10-19T06:25:24.611Z,468
2016-10-19T06:26:05.291Z,468
2016-10-19T06:26:46.033Z,468
2016-10-19T06:27:26.759Z,468
2016-10-19T06:28:07.434Z,468
2016-10-19T06:28:48.132Z,468
2016-10-19T06:29:28.760Z,468
2016-10-19T06:30:09.455Z,468
2016-10-19T06:30:50.105Z,472
2016-10-19T06:31:30.766Z,472
2016-10-19T06:32:11.473Z,472
2016-10-19T06:32:52.196Z,468
2016-10-19T06:33:32.879Z,472
2016-10-19T06:34:13.579Z,472
2016-10-19T06:34:54.275Z,476
2016-10-19T06:35:34.930Z,472
2016-10-19T06:36:15.631Z,472
2016-10-19T06:36:56.344Z,476
2016-10-19T06:37:36.978Z,476
2016-10-19T06:38:17.723Z,476
2016-10-19T06:38:58.403Z,476
2016-10-19T06:39:39.137Z,472
2016-10-19T06:40:19.888Z,476
2016-10-19T06:41:00.589Z,476
2016-10-19T06:41:41.287Z,476
2016-10-19T06:42:21.923Z,476
2016-10-19T06:43:02.588Z,476
2016-10-19T06:43:43.281Z,476
2016-10-19T06:44:23.975Z,476
2016-10-19T06:45:04.720Z,480
2016-10-19T06:45:45.443Z,480
2016-10-19T06:46:26.145Z,476
2016-10-19T06:47:06.842Z,476
2016-10-19T06:47:47.489Z,476
2016-10-19T06:48:28.222Z,476
2016-10-19T06:49:08.947Z,476
2016-10-19T06:49:49.646Z,476
2016-10-19T06:50:30.387Z,476
2016-10-19T06:51:11.100Z,476
2016-10-19T06:51:51.774Z,476
2016-10-19T06:52:32.461Z,476
2016-10-19T06:53:13.201Z,476
2016-10-19T06:53:53.931Z,476
2016-10-19T06:54:34.574Z,476
2016-10-19T06:55:15.294Z,476
2016-10-19T06:55:56.028Z,476
2016-10-19T06:56:36.706Z,476
2016-10-19T06:57:17.422Z,476
2016-10-19T06:57:58.154Z,476
2016-10-19T06:58:38.812Z,476
2016-10-19T06:59:19.519Z,476
2016-10-19T07:00:00.227Z,476
2016-10-19T07:00:40.910Z,476
2016-10-19T07:01:21.559Z,480
2016-10-19T07:02:02.285Z,480
2016-10-19T07:02:42.953Z,480
2016-10-19T07:03:23.653Z,480
2016-10-19T07:04:04.421Z,480
2016-10-19T07:04:45.084Z,476
2016-10-19T07:05:25.780Z,480
2016-10-19T07:06:06.485Z,476
2016-10-19T07:06:47.131Z,476
2016-10-19T07:07:27.813Z,480
2016-10-19T07:08:08.470Z,480
2016-10-19T07:08:49.113Z,476
2016-10-19T07:09:29.801Z,476
2016-10-19T07:10:10.504Z,476
2016-10-19T07:10:51.201Z,476
2016-10-19T07:11:31.892Z,476
2016-10-19T07:12:12.601Z,476
2016-10-19T07:12:53.297Z,476
2016-10-19T07:13:33.994Z,476
2016-10-19T07:14:14.764Z,476
2016-10-19T07:14:55.415Z,480
2016-10-19T07:15:36.065Z,480
2016-10-19T07:16:16.764Z,476
2016-10-19T07:16:57.466Z,476
2016-10-19T07:17:38.179Z,476
2016-10-19T07:18:18.924Z,480
2016-10-19T07:18:59.664Z,476
2016-10-19T07:19:40.368Z,480
2016-10-19T07:20:21.022Z,480
2016-10-19T07:21:01.731Z,480
2016-10-19T07:21:42.401Z,480
2016-10-19T07:22:23.115Z,480
2016-10-19T07:23:04.495Z,480
2016-10-19T07:23:44.469Z,480
2016-10-19T07:24:25.151Z,484
2016-10-19T07:25:05.851Z,484
2016-10-19T07:25:46.603Z,480
2016-10-19T07:26:27.321Z,484
2016-10-19T07:27:08.014Z,484
2016-10-19T07:27:48.771Z,484
2016-10-19T07:28:29.491Z,484
2016-10-19T07:29:10.182Z,484
2016-10-19T07:29:50.907Z,484
2016-10-19T07:30:32.552Z,484
2016-10-19T07:31:13.281Z,488
2016-10-19T07:31:54.034Z,488
2016-10-19T07:32:34.741Z,488
2016-10-19T07:33:15.427Z,484
2016-10-19T07:33:56.129Z,484
2016-10-19T07:34:36.776Z,480
2016-10-19T07:35:17.452Z,484
2016-10-19T07:35:58.105Z,484
2016-10-19T07:36:38.742Z,484
2016-10-19T07:37:19.444Z,484
2016-10-19T07:38:00.109Z,488
2016-10-19T07:38:40.822Z,488
2016-10-19T07:39:21.493Z,480
2016-10-19T07:40:02.183Z,480
2016-10-19T07:40:43.730Z,492
2016-10-19T07:41:24.444Z,492
2016-10-19T07:42:05.105Z,488
2016-10-19T07:42:45.793Z,484
2016-10-19T07:43:26.790Z,488
2016-10-19T07:44:07.491Z,492
2016-10-19T07:44:48.132Z,488
2016-10-19T07:45:28.820Z,496
2016-10-19T07:46:09.450Z,492
2016-10-19T07:46:50.205Z,484
2016-10-19T07:47:30.876Z,492
2016-10-19T07:48:11.578Z,488
2016-10-19T07:48:52.279Z,492
2016-10-19T07:49:32.978Z,496
2016-10-19T07:50:13.649Z,492
2016-10-19T07:50:54.432Z,496
2016-10-19T07:51:35.170Z,500
2016-10-19T07:52:15.842Z,500
2016-10-19T07:52:56.539Z,500
2016-10-19T07:53:37.300Z,500
2016-10-19T07:54:17.985Z,500
2016-10-19T07:54:58.702Z,504
2016-10-19T07:55:39.514Z,504
2016-10-19T07:56:20.273Z,504
2016-10-19T07:57:01.040Z,508
2016-10-19T07:57:41.880Z,508
2016-10-19T07:58:22.495Z,512
2016-10-19T07:59:03.155Z,512
2016-10-19T07:59:43.864Z,516
2016-10-19T08:00:24.570Z,516
2016-10-19T08:01:05.271Z,512
2016-10-19T08:01:45.956Z,512
2016-10-19T08:02:26.620Z,516
2016-10-19T08:03:07.278Z,520
2016-10-19T08:03:48.807Z,524
2016-10-19T08:04:30.105Z,524
2016-10-19T08:05:10.771Z,524
2016-10-19T08:05:51.448Z,524
2016-10-19T08:06:32.229Z,524
2016-10-19T08:07:13.900Z,524
2016-10-19T08:07:54.645Z,528
2016-10-19T08:08:35.431Z,528
2016-10-19T08:09:16.172Z,532
2016-10-19T08:09:56.861Z,528
2016-10-19T08:10:37.914Z,532
2016-10-19T08:11:18.613Z,532
2016-10-19T08:11:59.452Z,528
2016-10-19T08:12:40.071Z,520
2016-10-19T08:13:20.758Z,528
2016-10-19T08:14:02.269Z,532
2016-10-19T08:14:44.105Z,528
2016-10-19T08:15:24.925Z,536
2016-10-19T08:16:05.643Z,536
2016-10-19T08:16:46.357Z,536
2016-10-19T08:17:27.138Z,536
2016-10-19T08:18:08.185Z,532
2016-10-19T08:18:49.817Z,536
2016-10-19T08:19:30.516Z,536
2016-10-19T08:20:11.295Z,540
2016-10-19T08:20:51.969Z,528
2016-10-19T08:21:32.683Z,528
2016-10-19T08:22:13.438Z,528
2016-10-19T08:22:54.151Z,520
2016-10-19T08:23:36.764Z,516
2016-10-19T08:24:17.443Z,516
2016-10-19T08:24:58.230Z,516
2016-10-19T08:25:38.935Z,516
2016-10-19T08:26:19.682Z,516
2016-10-19T08:27:00.409Z,520
2016-10-19T08:27:41.202Z,516
2016-10-19T08:28:21.895Z,520
2016-10-19T08:29:02.629Z,512
2016-10-19T08:29:44.103Z,512
2016-10-19T08:30:24.777Z,516
2016-10-19T08:31:05.508Z,504
2016-10-19T08:31:46.158Z,516
2016-10-19T08:32:26.914Z,516
2016-10-19T08:33:07.589Z,516
2016-10-19T08:33:48.291Z,520
2016-10-19T08:34:28.998Z,516
2016-10-19T08:35:09.696Z,516
2016-10-19T08:35:50.498Z,516
2016-10-19T08:36:31.169Z,516
2016-10-19T08:37:11.947Z,512
2016-10-19T08:37:52.613Z,516
2016-10-19T08:38:33.289Z,512
2016-10-19T08:39:14.027Z,512
2016-10-19T08:39:54.685Z,516
2016-10-19T08:40:35.411Z,516
2016-10-19T08:41:16.169Z,516
2016-10-19T08:41:56.862Z,512
2016-10-19T08:42:37.512Z,508
2016-10-19T08:43:18.205Z,512
2016-10-19T08:43:58.896Z,512
2016-10-19T08:44:39.600Z,512
2016-10-19T08:45:20.236Z,512
2016-10-19T08:49:03.535Z,508
2016-10-19T08:49:44.345Z,508
2016-10-19T08:50:25.202Z,512
2016-10-19T08:51:05.940Z,508
2016-10-19T08:51:46.624Z,508
2016-10-19T08:52:27.372Z,512
2016-10-19T08:53:08.042Z,508
2016-10-19T08:53:48.737Z,512
2016-10-19T08:54:29.417Z,520
2016-10-19T08:55:10.130Z,520
2016-10-19T08:55:50.828Z,524
2016-10-19T08:56:31.522Z,528
2016-10-19T08:57:12.295Z,524
2016-10-19T08:57:52.914Z,528
2016-10-19T08:58:33.663Z,524
2016-10-19T08:59:15.913Z,528
2016-10-19T08:59:56.627Z,528
2016-10-19T09:00:37.443Z,524
2016-10-19T09:01:19.158Z,524
2016-10-19T09:01:59.779Z,524
2016-10-19T09:02:40.472Z,528
2016-10-19T09:03:21.202Z,524
2016-10-19T09:04:01.958Z,528
2016-10-19T09:04:42.659Z,528
2016-10-19T09:05:23.653Z,528
2016-10-19T09:06:04.484Z,536
2016-10-19T09:06:45.199Z,540
2016-10-19T09:07:25.888Z,536
2016-10-19T09:08:06.577Z,500
2016-10-19T09:08:47.301Z,504
2016-10-19T09:09:28.025Z,512
2016-10-19T09:10:08.781Z,508
2016-10-19T09:10:49.464Z,508
2016-10-19T09:11:30.850Z,512
2016-10-19T09:12:10.934Z,512
2016-10-19T09:12:51.616Z,512
2016-10-19T09:13:32.354Z,536
2016-10-19T09:14:13.122Z,536
2016-10-19T09:14:53.821Z,536
2016-10-19T09:15:34.520Z,536
2016-10-19T09:16:15.185Z,536
2016-10-19T09:16:55.912Z,536
2016-10-19T09:17:36.716Z,536
2016-10-19T09:18:18.227Z,532
2016-10-19T09:18:58.918Z,536
2016-10-19T09:19:39.653Z,536
2016-10-19T09:20:20.335Z,536
2016-10-19T09:21:01.130Z,540
2016-10-19T09:21:41.818Z,540
2016-10-19T09:22:23.447Z,544
2016-10-19T09:23:04.327Z,540
2016-10-19T09:23:44.903Z,544
2016-10-19T09:24:25.644Z,544
2016-10-19T09:25:06.339Z,540
2016-10-19T09:25:47.070Z,540
2016-10-19T09:26:27.902Z,540
2016-10-19T09:27:08.531Z,540
2016-10-19T09:27:49.208Z,540
2016-10-19T09:28:29.998Z,540
2016-10-19T09:29:10.696Z,540
2016-10-19T09:29:51.408Z,540
2016-10-19T09:30:32.116Z,536
2016-10-19T09:31:12.821Z,540
2016-10-19T09:31:53.528Z,536
2016-10-19T09:32:34.221Z,540
2016-10-19T09:33:14.981Z,536
2016-10-19T09:33:55.714Z,540
2016-10-19T09:34:36.403Z,540
2016-10-19T09:35:18.969Z,540
2016-10-19T09:35:59.716Z,536
2016-10-19T09:36:40.415Z,532
2016-10-19T09:37:21.339Z,540
2016-10-19T09:38:04.292Z,536
2016-10-19T09:38:46.910Z,536
2016-10-19T09:39:27.618Z,536
2016-10-19T09:40:08.655Z,540
2016-10-19T09:40:49.410Z,540
2016-10-19T09:41:33.313Z,540
2016-10-19T09:42:14.800Z,536
2016-10-19T09:42:56.005Z,540
2016-10-19T09:43:40.365Z,544
2016-10-19T09:44:21.661Z,540
2016-10-19T09:45:10.354Z,540
2016-10-19T09:45:55.456Z,540
2016-10-19T09:46:36.421Z,544
2016-10-19T09:47:17.070Z,544
2016-10-19T09:47:58.563Z,540
2016-10-19T09:48:39.214Z,544
2016-10-19T09:49:19.916Z,540